| time (UTC) | temp C | wind direction | speed KPH | gust KPH | rain 1hr cm | rain 24hr cm | rain mn cm | humidity % | barometer mb |
| 20260507094511 | 8 | 131 | 0.0 | 0.0 | 0.00 | 0.00 | 0.00 | 73 | 1011.9 |
| 20260507094238 | 9 | 131 | 0.0 | 0.0 | 0.00 | 0.00 | 0.00 | 73 | 1011.6 |
| 20260507092044 | 10 | 131 | 0.0 | 0.0 | 0.00 | 0.00 | 0.00 | 69 | 1011.4 |
| 20260507091506 | 10 | 131 | 0.0 | 0.0 | 0.00 | 0.00 | 0.00 | 66 | 1011.4 |
| 20260507091035 | 11 | 131 | 0.0 | 1.6 | 0.00 | 0.00 | 0.00 | 63 | 1011.3 |
| 20260507090051 | 11 | 120 | 0.0 | 6.4 | 0.00 | 0.00 | 0.00 | 63 | 1011.3 |
| 20260507090006 | 11 | 123 | 0.0 | 0.0 | 0.00 | 0.00 | 0.00 | 63 | 1011.4 |
| 20260507085106 | 11 | 175 | 0.0 | 0.0 | 0.00 | 0.00 | 0.00 | 63 | 1011.0 |
| 20260507084632 | 11 | 174 | 0.0 | 0.0 | 0.00 | 0.00 | 0.00 | 63 | 1011.1 |
| 20260507084051 | 11 | 254 | 0.0 | 0.0 | 0.00 | 0.00 | 0.00 | 62 | 1010.9 |
| 20260507083104 | 11 | 254 | 1.6 | 0.0 | 0.00 | 0.00 | 0.00 | 64 | 1010.9 |
| 20260507083017 | 12 | 256 | 0.0 | 0.0 | 0.00 | 0.00 | 0.00 | 62 | 1010.9 |
| 20260507082015 | 12 | 182 | 0.0 | 9.7 | 0.00 | 0.00 | 0.00 | 63 | 1010.6 |
| 20260507081502 | 11 | 162 | 1.6 | 0.0 | 0.00 | 0.00 | 0.00 | 61 | 1010.7 |
| 20260507081025 | 12 | 349 | 0.0 | 9.7 | 0.00 | 0.00 | 0.00 | 61 | 1010.5 |
| 20260507080030 | 11 | 185 | 0.0 | 1.6 | 0.00 | 0.00 | 0.00 | 61 | 1010.5 |
| 20260507080008 | 11 | 185 | 0.0 | 0.0 | 0.00 | 0.00 | 0.00 | 61 | 1010.6 |
| 20260507074604 | 12 | 191 | 1.6 | 0.0 | 0.00 | 0.00 | 0.00 | 60 | 1010.5 |
| 20260507073936 | 12 | 182 | 0.0 | 8.0 | 0.00 | 0.00 | 0.00 | 60 | 1010.4 |
| 20260507073008 | 12 | 241 | 1.6 | 0.0 | 0.00 | 0.00 | 0.00 | 59 | 1010.5 |
| 20260507072938 | 12 | 254 | 0.0 | 8.0 | 0.00 | 0.00 | 0.00 | 59 | 1010.4 |
| 20260507071914 | 12 | 113 | 0.0 | 4.8 | 0.00 | 0.00 | 0.00 | 59 | 1010.3 |
| 20260507070916 | 12 | 112 | 1.6 | 11.3 | 0.00 | 0.00 | 0.00 | 58 | 1010.1 |
| 20260507070008 | 12 | 150 | 1.6 | 0.0 | 0.00 | 0.00 | 0.00 | 59 | 1010.2 |
| 20260507065933 | 12 | 150 | 0.0 | 8.0 | 0.00 | 0.00 | 0.00 | 58 | 1010.1 |
| 20260507064926 | 13 | 165 | 3.2 | 11.3 | 0.00 | 0.00 | 0.00 | 57 | 1009.8 |
| 20260507064506 | 12 | 217 | 6.4 | 0.0 | 0.00 | 0.00 | 0.00 | 57 | 1009.9 |
| 20260507063921 | 13 | 219 | 4.8 | 14.5 | 0.00 | 0.00 | 0.00 | 56 | 1009.7 |
| 20260507063008 | 13 | 209 | 8.0 | 0.0 | 0.00 | 0.00 | 0.00 | 56 | 1009.8 |
| 20260507062913 | 13 | 237 | 6.4 | 16.1 | 0.00 | 0.00 | 0.00 | 55 | 1009.7 |
| 20260507061925 | 13 | 208 | 4.8 | 16.1 | 0.00 | 0.00 | 0.00 | 55 | 1009.9 |
| 20260507061507 | 13 | 184 | 4.8 | 0.0 | 0.00 | 0.00 | 0.00 | 54 | 1009.9 |
| 20260507060934 | 13 | 152 | 3.2 | 16.1 | 0.00 | 0.00 | 0.00 | 55 | 1009.9 |
| 20260507060004 | 13 | 196 | 3.2 | 0.0 | 0.00 | 0.00 | 0.00 | 55 | 1010.0 |
| 20260507055906 | 14 | 198 | 1.6 | 16.1 | 0.00 | 0.00 | 0.00 | 55 | 1009.9 |
| 20260507054925 | 14 | 220 | 0.0 | 8.0 | 0.00 | 0.00 | 0.00 | 53 | 1009.9 |
| 20260507054503 | 14 | 56 | 1.6 | 0.0 | 0.00 | 0.00 | 0.00 | 52 | 1010.0 |
| 20260507053911 | 15 | 178 | 0.0 | 4.8 | 0.00 | 0.00 | 0.00 | 50 | 1009.6 |
| 20260507053009 | 15 | 243 | 3.2 | 0.0 | 0.00 | 0.00 | 0.00 | 48 | 1009.6 |
| 20260507052927 | 15 | 199 | 1.6 | 6.4 | 0.00 | 0.00 | 0.00 | 48 | 1009.6 |
| 20260507051503 | 15 | 164 | 6.4 | 0.0 | 0.00 | 0.00 | 0.00 | 50 | 1009.6 |
| 20260507050723 | 15 | 248 | 3.2 | 16.1 | 0.00 | 0.00 | 0.00 | 51 | 1010.1 |
| 20260507050010 | 15 | 167 | 4.8 | 0.0 | 0.00 | 0.00 | 0.00 | 52 | 1010.2 |
| 20260507045729 | 15 | 188 | 1.6 | 11.3 | 0.00 | 0.00 | 0.00 | 52 | 1010.3 |
| 20260507044702 | 15 | 320 | 0.0 | 0.0 | 0.00 | 0.00 | 0.00 | 55 | 1010.3 |
| 20260507044507 | 14 | 291 | 1.6 | 0.0 | 0.00 | 0.00 | 0.00 | 53 | 1010.4 |
| 20260507043633 | 15 | 157 | 0.0 | 8.0 | 0.00 | 0.00 | 0.00 | 52 | 1010.4 |
| 20260507043009 | 14 | 133 | 1.6 | 0.0 | 0.00 | 0.00 | 0.00 | 55 | 1010.5 |
| 20260507042630 | 14 | 133 | 0.0 | 3.2 | 0.00 | 0.00 | 0.00 | 58 | 1010.5 |
| 20260507041604 | 14 | 224 | 0.0 | 0.0 | 0.00 | 0.00 | 0.00 | 57 | 1010.5 |
| 20260507040545 | 15 | 224 | 0.0 | 0.0 | 0.00 | 0.00 | 0.00 | 56 | 1010.6 |
| 20260507040002 | 15 | 224 | 1.6 | 0.0 | 0.00 | 0.00 | 0.00 | 57 | 1010.7 |
| 20260507034516 | 15 | 178 | 1.6 | 0.0 | 0.00 | 0.00 | 0.00 | 54 | 1010.6 |
| 20260507034429 | 15 | 178 | 0.0 | 1.6 | 0.00 | 0.00 | 0.00 | 55 | 1010.5 |
| 20260507033443 | 16 | 224 | 0.0 | 8.0 | 0.00 | 0.00 | 0.00 | 53 | 1010.2 |
| 20260507033103 | 16 | 208 | 3.2 | 0.0 | 0.00 | 0.00 | 0.00 | 53 | 1010.3 |
| 20260507031509 | 16 | 0 | 0.0 | 0.0 | 0.00 | 0.00 | 0.00 | 48 | 1010.0 |
| 20260507031325 | 17 | 0 | 0.0 | 1.6 | 0.00 | 0.00 | 0.00 | 48 | 1010.2 |
| 20260507030004 | 17 | 52 | 0.0 | 0.0 | 0.00 | 0.00 | 0.00 | 46 | 1010.2 |
| 20260507025111 | 17 | 78 | 0.0 | 0.0 | 0.00 | 0.00 | 0.00 | 47 | 1010.1 |
| 20260507024504 | 17 | 234 | 1.6 | 0.0 | 0.00 | 0.00 | 0.00 | 44 | 1010.2 |
| 20260507024125 | 18 | 289 | 0.0 | 8.0 | 0.00 | 0.00 | 0.00 | 43 | 1010.1 |
| 20260507023149 | 18 | 330 | 0.0 | 0.0 | 0.00 | 0.00 | 0.00 | 42 | 1010.1 |
| 20260507022136 | 20 | 202 | 0.0 | 11.3 | 0.00 | 0.00 | 0.00 | 40 | 1009.8 |
| 20260507021604 | 20 | 346 | 3.2 | 0.0 | 0.00 | 0.00 | 0.00 | 38 | 1009.9 |
| 20260507020006 | 20 | 268 | 4.8 | 0.0 | 0.00 | 0.00 | 0.00 | 37 | 1010.0 |
| 20260507015955 | 20 | 268 | 3.2 | 14.5 | 0.00 | 0.00 | 0.00 | 37 | 1010.0 |
| 20260507014924 | 21 | 233 | 3.2 | 14.5 | 0.00 | 0.00 | 0.00 | 37 | 1010.0 |
| 20260507014507 | 21 | 230 | 4.8 | 0.0 | 0.00 | 0.00 | 0.00 | 37 | 1010.1 |
| 20260507013942 | 21 | 287 | 3.2 | 17.7 | 0.00 | 0.00 | 0.00 | 41 | 1010.0 |
| 20260507013004 | 21 | 213 | 6.4 | 0.0 | 0.00 | 0.00 | 0.00 | 40 | 1010.0 |
| 20260507012912 | 21 | 210 | 6.4 | 17.7 | 0.00 | 0.00 | 0.00 | 38 | 1009.9 |
| 20260507011853 | 21 | 289 | 4.8 | 16.1 | 0.00 | 0.00 | 0.00 | 38 | 1009.9 |
| 20260507011506 | 21 | 253 | 6.4 | 0.0 | 0.00 | 0.00 | 0.00 | 39 | 1009.9 |
| 20260507010833 | 21 | 240 | 6.4 | 19.3 | 0.00 | 0.00 | 0.00 | 37 | 1009.6 |
| 20260507010112 | 22 | 234 | 6.4 | 0.0 | 0.00 | 0.00 | 0.00 | 37 | 1009.7 |
| 20260507004503 | 22 | 171 | 4.8 | 0.0 | 0.00 | 0.00 | 0.00 | 37 | 1009.2 |
| 20260507003525 | 23 | 233 | 3.2 | 11.3 | 0.00 | 0.00 | 0.00 | 35 | 1008.9 |
| 20260507003106 | 22 | 296 | 3.2 | 0.0 | 0.00 | 0.00 | 0.00 | 38 | 1009.0 |
| 20260507002518 | 23 | 237 | 1.6 | 11.3 | 0.00 | 0.00 | 0.00 | 38 | 1008.6 |
| 20260507001604 | 22 | 168 | 4.8 | 0.0 | 0.00 | 0.00 | 0.00 | 36 | 1008.7 |
| 20260507001525 | 22 | 206 | 3.2 | 9.7 | 0.00 | 0.00 | 0.00 | 35 | 1008.6 |
| 20260507000542 | 21 | 154 | 1.6 | 9.7 | 0.00 | 0.00 | 0.00 | 38 | 1008.8 |
| 20260507000007 | 21 | 167 | 3.2 | 0.0 | 0.00 | 0.00 | 0.00 | 36 | 1008.8 |
| 20260506235550 | 21 | 254 | 1.6 | 16.1 | 0.00 | 0.00 | 0.00 | 39 | 1008.6 |
| 20260506234543 | 21 | 251 | 1.6 | 16.1 | 0.00 | 0.00 | 0.00 | 37 | 1008.6 |
| 20260506234503 | 21 | 251 | 3.2 | 0.0 | 0.00 | 0.00 | 0.00 | 37 | 1008.7 |
| 20260506233604 | 21 | 168 | 3.2 | 12.9 | 0.00 | 0.00 | 0.00 | 38 | 1008.7 |
| 20260506233034 | 21 | 181 | 4.8 | 0.0 | 0.00 | 0.00 | 0.00 | 37 | 1008.8 |
| 20260506232621 | 21 | 256 | 3.2 | 12.9 | 0.00 | 0.00 | 0.00 | 36 | 1008.8 |
| 20260506231625 | 22 | 229 | 1.6 | 11.3 | 0.00 | 0.00 | 0.00 | 37 | 1008.8 |
| 20260506230602 | 22 | 167 | 1.6 | 11.3 | 0.00 | 0.00 | 0.00 | 37 | 1008.6 |
| 20260506225543 | 22 | 209 | 1.6 | 11.3 | 0.00 | 0.00 | 0.00 | 37 | 1008.5 |
| 20260506224606 | 22 | 212 | 3.2 | 0.0 | 0.00 | 0.00 | 0.00 | 36 | 1008.5 |
| 20260506224557 | 22 | 212 | 1.6 | 16.1 | 0.00 | 0.00 | 0.00 | 36 | 1008.5 |
| 20260506223007 | 22 | 313 | 4.8 | 0.0 | 0.00 | 0.00 | 0.00 | 38 | 1008.7 |
| 20260506222418 | 22 | 263 | 3.2 | 14.5 | 0.00 | 0.00 | 0.00 | 38 | 1008.6 |
| 20260506221603 | 22 | 275 | 1.6 | 0.0 | 0.00 | 0.00 | 0.00 | 35 | 1008.7 |
| 20260506221442 | 22 | 298 | 0.0 | 9.7 | 0.00 | 0.00 | 0.00 | 35 | 1008.6 |
| 20260506220449 | 22 | 176 | 0.0 | 9.7 | 0.00 | 0.00 | 0.00 | 35 | 1008.6 |
| 20260506220015 | 22 | 305 | 1.6 | 0.0 | 0.00 | 0.00 | 0.00 | 36 | 1008.7 |
| 20260506214606 | 22 | 226 | 3.2 | 0.0 | 0.00 | 0.00 | 0.00 | 34 | 1008.7 |
| 20260506214317 | 22 | 189 | 0.0 | 4.8 | 0.00 | 0.00 | 0.00 | 33 | 1008.8 |
| 20260506213254 | 22 | 165 | 0.0 | 14.5 | 0.00 | 0.00 | 0.00 | 33 | 1008.8 |
| 20260506213003 | 22 | 261 | 1.6 | 0.0 | 0.00 | 0.00 | 0.00 | 34 | 1008.9 |
| 20260506212306 | 22 | 191 | 1.6 | 14.5 | 0.00 | 0.00 | 0.00 | 34 | 1008.8 |
| 20260506211317 | 22 | 210 | 4.8 | 11.3 | 0.00 | 0.00 | 0.00 | 33 | 1008.9 |
| 20260506210320 | 22 | 154 | 1.6 | 8.0 | 0.00 | 0.00 | 0.00 | 31 | 1008.9 |
| 20260506210012 | 22 | 275 | 3.2 | 0.0 | 0.00 | 0.00 | 0.00 | 31 | 1009.0 |
| 20260506205246 | 22 | 192 | 1.6 | 14.5 | 0.00 | 0.00 | 0.00 | 30 | 1009.0 |
| 20260506204632 | 22 | 184 | 3.2 | 0.0 | 0.00 | 0.00 | 0.00 | 31 | 1009.0 |
| 20260506203003 | 22 | 195 | 3.2 | 0.0 | 0.00 | 0.00 | 0.00 | 33 | 1009.0 |
| 20260506201506 | 22 | 148 | 3.2 | 0.0 | 0.00 | 0.00 | 0.00 | 31 | 1008.9 |
| 20260506200912 | 23 | 109 | 0.0 | 9.7 | 0.00 | 0.00 | 0.00 | 30 | 1008.8 |
| 20260506200012 | 22 | 208 | 3.2 | 0.0 | 0.00 | 0.00 | 0.00 | 31 | 1008.8 |
| 20260506195930 | 23 | 208 | 1.6 | 11.3 | 0.00 | 0.00 | 0.00 | 31 | 1008.8 |
| 20260506194952 | 23 | 256 | 3.2 | 11.3 | 0.00 | 0.00 | 0.00 | 32 | 1008.6 |
| 20260506194503 | 23 | 230 | 3.2 | 0.0 | 0.00 | 0.00 | 0.00 | 32 | 1008.6 |
| 20260506194012 | 23 | 219 | 1.6 | 9.7 | 0.00 | 0.00 | 0.00 | 30 | 1008.4 |
| 20260506193103 | 23 | 193 | 3.2 | 0.0 | 0.00 | 0.00 | 0.00 | 32 | 1008.5 |
| 20260506193014 | 23 | 192 | 1.6 | 12.9 | 0.00 | 0.00 | 0.00 | 33 | 1008.4 |
| 20260506191534 | 23 | 168 | 4.8 | 0.0 | 0.00 | 0.00 | 0.00 | 31 | 1008.5 |
| 20260506185734 | 24 | 239 | 1.6 | 16.1 | 0.00 | 0.00 | 0.00 | 35 | 1008.2 |
| 20260506184603 | 24 | 141 | 4.8 | 0.0 | 0.00 | 0.00 | 0.00 | 33 | 1008.3 |
| 20260506183601 | 24 | 232 | 3.2 | 16.1 | 0.00 | 0.00 | 0.00 | 37 | 1008.3 |
| 20260506183125 | 24 | 212 | 4.8 | 0.0 | 0.00 | 0.00 | 0.00 | 34 | 1008.4 |
| 20260506182555 | 24 | 234 | 1.6 | 16.1 | 0.00 | 0.00 | 0.00 | 38 | 1008.2 |
| 20260506181550 | 23 | 191 | 1.6 | 9.7 | 0.00 | 0.00 | 0.00 | 39 | 1008.2 |
| 20260506181507 | 23 | 223 | 3.2 | 0.0 | 0.00 | 0.00 | 0.00 | 40 | 1008.2 |
| 20260506180518 | 23 | 315 | 1.6 | 11.3 | 0.00 | 0.00 | 0.00 | 43 | 1007.9 |
| 20260506180009 | 23 | 265 | 3.2 | 0.0 | 0.00 | 0.00 | 0.00 | 44 | 1007.9 |
| 20260506175531 | 23 | 224 | 0.0 | 9.7 | 0.00 | 0.00 | 0.00 | 45 | 1008.1 |
| 20260506174525 | 22 | 223 | 0.0 | 3.2 | 0.00 | 0.00 | 0.00 | 49 | 1008.1 |
| 20260506174502 | 22 | 223 | 1.6 | 0.0 | 0.00 | 0.00 | 0.00 | 49 | 1008.2 |
| 20260506173526 | 22 | 223 | 0.0 | 3.2 | 0.00 | 0.00 | 0.00 | 50 | 1008.3 |
| 20260506173003 | 21 | 247 | 3.2 | 0.0 | 0.00 | 0.00 | 0.00 | 53 | 1008.4 |
| 20260506171505 | 20 | 73 | 0.0 | 0.0 | 0.00 | 0.00 | 0.00 | 57 | 1008.6 |
| 20260506171352 | 21 | 73 | 0.0 | 1.6 | 0.00 | 0.00 | 0.00 | 59 | 1008.5 |
| 20260506170401 | 20 | 73 | 0.0 | 0.0 | 0.00 | 0.00 | 0.00 | 61 | 1008.5 |
| 20260506170104 | 20 | 73 | 1.6 | 0.0 | 0.00 | 0.00 | 0.00 | 58 | 1008.6 |
| 20260506164603 | 18 | 76 | 1.6 | 0.0 | 0.00 | 0.00 | 0.00 | 62 | 1008.8 |
| 20260506164215 | 19 | 79 | 0.0 | 3.2 | 0.00 | 0.00 | 0.00 | 59 | 1009.0 |
| 20260506163515 | 18 | 79 | 0.0 | 1.6 | 0.00 | 0.00 | 0.00 | 67 | 1009.0 |
| 20260506163007 | 18 | 79 | 1.6 | 0.0 | 0.00 | 0.00 | 0.00 | 61 | 1009.1 |
| 20260506162540 | 18 | 79 | 0.0 | 6.4 | 0.00 | 0.00 | 0.00 | 62 | 1009.1 |
| 20260506161605 | 18 | 76 | 0.0 | 0.0 | 0.00 | 0.00 | 0.00 | 65 | 1009.1 |
| 20260506161544 | 18 | 76 | 0.0 | 0.0 | 0.00 | 0.00 | 0.00 | 65 | 1009.1 |
| 20260506160536 | 17 | 76 | 0.0 | 0.0 | 0.00 | 0.00 | 0.00 | 67 | 1009.5 |
| 20260506154604 | 15 | 76 | 0.0 | 0.0 | 0.00 | 0.00 | 0.00 | 71 | 1009.8 |
| 20260506154425 | 16 | 76 | 0.0 | 0.0 | 0.00 | 0.00 | 0.00 | 69 | 1009.7 |
| 20260506153008 | 14 | 76 | 0.0 | 0.0 | 0.00 | 0.00 | 0.00 | 75 | 1010.0 |
| 20260506152312 | 14 | 76 | 0.0 | 0.0 | 0.00 | 0.00 | 0.00 | 77 | 1010.2 |
| 20260506151507 | 13 | 76 | 0.0 | 0.0 | 0.00 | 0.00 | 0.00 | 79 | 1010.3 |
| 20260506151319 | 13 | 76 | 0.0 | 0.0 | 0.00 | 0.00 | 0.00 | 79 | 1010.3 |
| 20260506150330 | 13 | 76 | 0.0 | 0.0 | 0.00 | 0.00 | 0.00 | 81 | 1010.3 |
| 20260506150105 | 12 | 76 | 0.0 | 0.0 | 0.00 | 0.00 | 0.00 | 81 | 1010.3 |
| 20260506145353 | 13 | 76 | 0.0 | 0.0 | 0.00 | 0.00 | 0.00 | 79 | 1010.3 |
| 20260506144609 | 12 | 76 | 0.0 | 0.0 | 0.00 | 0.00 | 0.00 | 79 | 1010.4 |
| 20260506144404 | 12 | 76 | 0.0 | 3.2 | 0.00 | 0.00 | 0.00 | 78 | 1010.4 |
| 20260506143352 | 12 | 76 | 0.0 | 0.0 | 0.00 | 0.00 | 0.00 | 81 | 1010.4 |
| 20260506142401 | 12 | 76 | 0.0 | 0.0 | 0.00 | 0.00 | 0.00 | 80 | 1010.2 |
| 20260506141502 | 11 | 134 | 0.0 | 0.0 | 0.00 | 0.00 | 0.00 | 82 | 1010.3 |
| 20260506141402 | 11 | 136 | 0.0 | 0.0 | 0.00 | 0.00 | 0.00 | 82 | 1009.9 |
| 20260506140403 | 11 | 136 | 0.0 | 0.0 | 0.00 | 0.00 | 0.00 | 82 | 1009.9 |
| 20260506140104 | 11 | 136 | 0.0 | 0.0 | 0.00 | 0.00 | 0.00 | 82 | 1009.9 |
| 20260506134323 | 11 | 136 | 0.0 | 0.0 | 0.00 | 0.00 | 0.00 | 81 | 1009.6 |
| 20260506133326 | 11 | 136 | 0.0 | 0.0 | 0.00 | 0.00 | 0.00 | 80 | 1009.6 |
| 20260506133004 | 11 | 136 | 0.0 | 0.0 | 0.00 | 0.00 | 0.00 | 78 | 1009.6 |
| 20260506132320 | 11 | 136 | 0.0 | 3.2 | 0.00 | 0.00 | 0.00 | 77 | 1009.6 |
| 20260506131606 | 11 | 136 | 0.0 | 0.0 | 0.00 | 0.00 | 0.00 | 80 | 1009.6 |
| 20260506131327 | 11 | 136 | 0.0 | 0.0 | 0.00 | 0.00 | 0.00 | 79 | 1009.3 |
| 20260506130304 | 11 | 136 | 0.0 | 0.0 | 0.00 | 0.00 | 0.00 | 79 | 1009.3 |
| 20260506125312 | 11 | 136 | 0.0 | 0.0 | 0.00 | 0.00 | 0.00 | 78 | 1009.2 |
| 20260506124502 | 11 | 136 | 0.0 | 0.0 | 0.00 | 0.00 | 0.00 | 79 | 1009.3 |
| 20260506124315 | 11 | 136 | 0.0 | 0.0 | 0.00 | 0.00 | 0.00 | 79 | 1009.2 |
| 20260506123245 | 11 | 134 | 0.0 | 1.6 | 0.00 | 0.00 | 0.00 | 79 | 1009.2 |
| 20260506123005 | 11 | 136 | 0.0 | 0.0 | 0.00 | 0.00 | 0.00 | 78 | 1009.2 |
| 20260506121503 | 11 | 136 | 0.0 | 0.0 | 0.00 | 0.00 | 0.00 | 78 | 1009.1 |
| 20260506121232 | 11 | 136 | 0.0 | 0.0 | 0.00 | 0.00 | 0.00 | 78 | 1009.0 |
| 20260506120239 | 11 | 136 | 0.0 | 3.2 | 0.00 | 0.00 | 0.00 | 77 | 1009.0 |
| 20260506120120 | 11 | 136 | 0.0 | 0.0 | 0.00 | 0.00 | 0.00 | 78 | 1009.1 |
| 20260506115212 | 11 | 136 | 0.0 | 0.0 | 0.00 | 0.00 | 0.00 | 78 | 1009.0 |
| 20260506114506 | 11 | 136 | 0.0 | 0.0 | 0.00 | 0.00 | 0.00 | 77 | 1009.0 |
| 20260506114230 | 11 | 136 | 0.0 | 1.6 | 0.00 | 0.00 | 0.00 | 78 | 1008.9 |
| 20260506113238 | 11 | 136 | 0.0 | 0.0 | 0.00 | 0.00 | 0.00 | 77 | 1008.9 |
| 20260506113006 | 11 | 136 | 0.0 | 0.0 | 0.00 | 0.00 | 0.00 | 78 | 1008.9 |
| 20260506112259 | 11 | 136 | 0.0 | 0.0 | 0.00 | 0.00 | 0.00 | 78 | 1008.9 |
| 20260506111505 | 11 | 136 | 0.0 | 0.0 | 0.00 | 0.00 | 0.00 | 77 | 1009.0 |
| 20260506111253 | 12 | 136 | 0.0 | 1.6 | 0.00 | 0.00 | 0.00 | 77 | 1008.7 |
| 20260506110305 | 12 | 136 | 0.0 | 0.0 | 0.00 | 0.00 | 0.00 | 77 | 1008.7 |
| 20260506110104 | 11 | 136 | 0.0 | 0.0 | 0.00 | 0.00 | 0.00 | 77 | 1008.8 |
| 20260506105306 | 12 | 136 | 0.0 | 0.0 | 0.00 | 0.00 | 0.00 | 77 | 1008.6 |
| 20260506104604 | 11 | 136 | 0.0 | 0.0 | 0.00 | 0.00 | 0.00 | 77 | 1008.7 |
| 20260506104242 | 12 | 136 | 0.0 | 0.0 | 0.00 | 0.00 | 0.00 | 77 | 1008.5 |
| 20260506103103 | 12 | 136 | 0.0 | 0.0 | 0.00 | 0.00 | 0.00 | 76 | 1008.6 |
| 20260506102113 | 12 | 136 | 0.0 | 0.0 | 0.00 | 0.00 | 0.00 | 77 | 1008.5 |
| 20260506101503 | 12 | 136 | 0.0 | 0.0 | 0.00 | 0.00 | 0.00 | 76 | 1008.5 |
| 20260506101049 | 12 | 136 | 0.0 | 0.0 | 0.00 | 0.00 | 0.00 | 76 | 1008.5 |
| 20260506100107 | 12 | 134 | 0.0 | 0.0 | 0.00 | 0.00 | 0.00 | 75 | 1008.6 |
| 20260506100015 | 12 | 136 | 0.0 | 1.6 | 0.00 | 0.00 | 0.00 | 75 | 1008.5 |